createdAt,value
2022-12-13T00:00:16.091Z,4.60
2022-12-13T00:02:46.439Z,4.20
2022-12-13T00:05:16.054Z,4.50
2022-12-13T00:07:45.241Z,4.80
2022-12-13T00:10:14.751Z,4.80
2022-12-13T00:12:44.232Z,5.80
2022-12-13T00:15:13.910Z,4.90
2022-12-13T00:17:43.249Z,5.10
2022-12-13T00:20:13.656Z,4.50
2022-12-13T00:22:42.894Z,5.50
2022-12-13T00:25:15.064Z,4.60
2022-12-13T00:27:44.406Z,4.80
2022-12-13T00:30:13.901Z,4.50
2022-12-13T00:32:43.189Z,4.40
2022-12-13T00:35:12.880Z,4.90
2022-12-13T00:37:42.146Z,4.80
2022-12-13T00:40:12.230Z,4.50
2022-12-13T00:42:41.641Z,4.60
2022-12-13T00:45:11.606Z,4.90
2022-12-13T00:47:41.119Z,4.30
2022-12-13T00:50:10.436Z,4.20
2022-12-13T00:52:39.784Z,4.50
2022-12-13T00:55:09.525Z,4.70
2022-12-13T00:57:39.044Z,5.10
2022-12-13T01:00:09.532Z,4.70
2022-12-13T01:02:39.048Z,4.60
2022-12-13T01:05:08.721Z,4.60
2022-12-13T01:07:40.552Z,4.20
2022-12-13T01:10:11.013Z,4.30
2022-12-13T01:12:40.892Z,4.80
2022-12-13T01:15:10.621Z,5.10
2022-12-13T01:17:39.649Z,5.30
2022-12-13T01:20:10.031Z,4.60
2022-12-13T01:22:39.022Z,4.30
2022-12-13T01:25:08.598Z,4.60
2022-12-13T01:27:37.822Z,4.00
2022-12-13T01:30:07.779Z,4.90
2022-12-13T01:32:37.048Z,4.60
2022-12-13T01:35:06.403Z,3.90
2022-12-13T01:37:37.455Z,4.20
2022-12-13T01:40:15.953Z,4.60
2022-12-13T01:42:45.448Z,4.50
2022-12-13T01:45:23.557Z,4.90
2022-12-13T01:48:02.622Z,4.60
2022-12-13T01:50:38.776Z,4.90
2022-12-13T01:53:15.460Z,4.60
2022-12-13T01:55:49.396Z,4.50
2022-12-13T01:58:21.352Z,4.20
2022-12-13T02:00:54.211Z,4.30
2022-12-13T02:03:24.674Z,4.10
2022-12-13T02:06:36.859Z,4.10
2022-12-13T02:09:09.585Z,4.40
2022-12-13T02:11:43.460Z,3.50
2022-12-13T02:14:12.850Z,4.00
2022-12-13T02:16:50.091Z,3.80
2022-12-13T02:19:43.639Z,4.60
2022-12-13T02:22:58.056Z,4.20
2022-12-13T02:26:19.286Z,3.90
2022-12-13T02:29:30.345Z,3.50
2022-12-13T02:32:17.738Z,4.00
2022-12-13T02:35:01.693Z,4.30
2022-12-13T02:38:04.184Z,3.60
2022-12-13T02:41:16.434Z,4.60
2022-12-13T02:44:31.749Z,4.30
2022-12-13T02:47:05.937Z,3.90
2022-12-13T02:49:52.769Z,3.90
2022-12-13T02:52:30.242Z,4.90
2022-12-13T02:55:00.674Z,3.50
2022-12-13T02:57:46.135Z,4.10
2022-12-13T03:00:19.335Z,4.10
2022-12-13T03:03:43.728Z,3.90
2022-12-13T03:06:45.457Z,3.40
2022-12-13T03:09:44.378Z,3.80
2022-12-13T03:12:40.355Z,3.60
2022-12-13T03:15:31.921Z,4.20
2022-12-13T03:18:16.382Z,3.90
2022-12-13T03:21:06.376Z,4.10
2022-12-13T03:23:35.843Z,4.40
2022-12-13T03:26:19.642Z,4.20
2022-12-13T03:28:48.563Z,4.00
2022-12-13T03:31:17.834Z,3.80
2022-12-13T03:33:48.114Z,4.10
2022-12-13T03:36:19.987Z,4.30
2022-12-13T03:38:54.531Z,4.00
2022-12-13T03:41:33.734Z,3.90
2022-12-13T03:44:08.765Z,4.10
2022-12-13T03:46:37.827Z,3.90
2022-12-13T03:49:06.691Z,4.60
2022-12-13T03:51:35.704Z,4.10
2022-12-13T03:54:04.516Z,3.90
2022-12-13T03:56:33.444Z,3.80
2022-12-13T03:59:03.351Z,3.10
2022-12-13T04:01:32.477Z,4.30
2022-12-13T04:04:01.519Z,3.80
2022-12-13T04:06:33.092Z,3.80
2022-12-13T04:09:02.447Z,3.50
2022-12-13T04:11:49.753Z,3.70
2022-12-13T04:14:21.720Z,3.00
2022-12-13T04:16:53.417Z,3.60
2022-12-13T04:19:23.152Z,3.20
2022-12-13T04:21:55.113Z,3.70
2022-12-13T04:24:31.319Z,4.00
2022-12-13T04:27:03.398Z,3.60
2022-12-13T04:29:34.489Z,3.50
2022-12-13T04:32:26.979Z,3.40
2022-12-13T04:35:00.805Z,2.70
2022-12-13T04:37:31.668Z,2.10
2022-12-13T04:40:01.177Z,2.00
2022-12-13T04:42:30.516Z,1.90
2022-12-13T04:44:59.358Z,1.90
2022-12-13T04:47:29.007Z,2.30
2022-12-13T04:49:57.888Z,2.20
2022-12-13T04:52:27.343Z,2.10
2022-12-13T04:54:56.310Z,2.30
2022-12-13T04:57:25.761Z,1.90
2022-12-13T04:59:54.762Z,1.80
2022-12-13T05:02:24.395Z,1.90
2022-12-13T05:04:54.479Z,1.60
2022-12-13T05:07:24.052Z,1.50
2022-12-13T05:09:52.920Z,1.60
2022-12-13T05:12:23.443Z,1.80
2022-12-13T05:14:54.345Z,1.60
2022-12-13T05:17:23.918Z,1.40
2022-12-13T05:19:52.882Z,1.30
2022-12-13T05:22:21.843Z,1.30
2022-12-13T05:24:51.103Z,1.70
2022-12-13T05:27:25.326Z,1.40
2022-12-13T05:30:03.388Z,2.00
2022-12-13T05:32:43.987Z,1.60
2022-12-13T05:35:23.176Z,1.60
2022-12-13T05:37:56.134Z,1.30
2022-12-13T05:40:27.326Z,1.30
2022-12-13T05:43:01.331Z,1.40
2022-12-13T05:45:32.943Z,1.20
2022-12-13T05:48:02.794Z,1.30
2022-12-13T05:50:31.828Z,1.10
2022-12-13T05:53:00.881Z,1.30
2022-12-13T05:55:29.756Z,1.40
2022-12-13T05:58:02.338Z,1.40
2022-12-13T06:00:32.672Z,1.40
2022-12-13T06:03:02.475Z,1.20
2022-12-13T06:05:32.810Z,1.30
2022-12-13T06:08:02.191Z,0.80
2022-12-13T06:10:35.372Z,1.10
2022-12-13T06:13:21.919Z,1.30
2022-12-13T06:16:02.032Z,1.20
2022-12-13T06:18:36.055Z,1.30
2022-12-13T06:21:08.406Z,1.00
2022-12-13T06:23:38.802Z,0.80
2022-12-13T06:26:09.604Z,1.20
2022-12-13T06:28:40.372Z,1.10
2022-12-13T06:31:09.528Z,1.10
2022-12-13T06:33:40.136Z,0.90
2022-12-13T06:36:10.167Z,0.90
2022-12-13T06:38:43.417Z,1.00
2022-12-13T06:41:19.064Z,1.10
2022-12-13T06:43:49.540Z,1.20
2022-12-13T06:46:18.409Z,1.10
2022-12-13T06:48:48.351Z,0.90
2022-12-13T06:51:22.987Z,1.20
2022-12-13T06:54:05.891Z,1.30
2022-12-13T06:56:35.077Z,1.00
2022-12-13T06:59:04.104Z,1.10
2022-12-13T07:01:37.080Z,1.10
2022-12-13T07:04:30.646Z,0.90
2022-12-13T07:07:01.776Z,1.20
2022-12-13T07:09:32.712Z,1.20
2022-12-13T07:12:02.515Z,1.30
2022-12-13T07:14:40.606Z,1.30
2022-12-13T07:17:11.769Z,1.10
2022-12-13T07:19:40.676Z,1.10
2022-12-13T07:22:09.609Z,1.20
2022-12-13T07:24:38.553Z,1.10
2022-12-13T07:27:07.496Z,0.80
2022-12-13T07:29:36.423Z,0.80
2022-12-13T07:32:05.354Z,1.10
2022-12-13T07:34:34.476Z,1.40
2022-12-13T07:37:05.020Z,0.90
2022-12-13T07:39:34.218Z,1.10
2022-12-13T07:42:03.069Z,1.00
2022-12-13T07:44:31.949Z,0.90
2022-12-13T07:47:01.199Z,0.70
2022-12-13T07:49:30.035Z,0.90
2022-12-13T07:51:58.828Z,0.90
2022-12-13T07:54:27.856Z,0.80
2022-12-13T07:57:01.222Z,1.00
2022-12-13T07:59:33.200Z,0.80
2022-12-13T08:02:02.241Z,0.80
2022-12-13T08:04:37.656Z,0.80
2022-12-13T08:07:11.668Z,0.80
2022-12-13T08:09:41.727Z,0.80
2022-12-13T08:12:10.832Z,0.70
2022-12-13T08:14:39.942Z,0.70
2022-12-13T08:17:09.508Z,0.80
2022-12-13T08:19:38.669Z,0.90
2022-12-13T08:22:14.230Z,0.90
2022-12-13T08:24:43.468Z,1.00
2022-12-13T08:27:12.437Z,0.70
2022-12-13T08:29:41.354Z,0.80
2022-12-13T08:32:13.145Z,0.50
2022-12-13T08:34:42.429Z,0.90
2022-12-13T08:37:11.673Z,0.90
2022-12-13T08:39:45.541Z,0.90
2022-12-13T08:42:20.005Z,0.80
2022-12-13T08:44:54.946Z,0.80
2022-12-13T08:47:27.084Z,0.80
2022-12-13T08:50:02.181Z,0.80
2022-12-13T08:52:39.218Z,0.90
2022-12-13T08:55:14.452Z,0.70
2022-12-13T08:57:45.513Z,0.80
2022-12-13T09:00:19.321Z,1.00
2022-12-13T09:02:49.057Z,0.70
2022-12-13T09:05:33.561Z,1.10
2022-12-13T09:08:22.746Z,0.90
2022-12-13T09:11:11.508Z,0.60
2022-12-13T09:13:53.052Z,0.80
2022-12-13T09:16:35.709Z,1.00
2022-12-13T09:19:24.987Z,0.80
2022-12-13T09:22:02.496Z,0.90
2022-12-13T09:24:35.809Z,0.80
2022-12-13T09:27:10.823Z,0.90
2022-12-13T09:29:57.103Z,0.60
2022-12-13T09:32:28.632Z,0.70
2022-12-13T09:34:57.651Z,0.70
2022-12-13T09:37:26.397Z,0.70
2022-12-13T09:39:55.586Z,0.80
2022-12-13T09:42:34.987Z,0.90
2022-12-13T09:45:22.624Z,0.90
2022-12-13T09:48:04.846Z,0.80
2022-12-13T09:50:53.034Z,0.90
2022-12-13T09:53:34.065Z,0.70
2022-12-13T09:56:10.578Z,0.70
2022-12-13T09:58:40.327Z,0.70
2022-12-13T10:01:09.597Z,0.70
2022-12-13T10:03:48.422Z,0.60
2022-12-13T10:06:23.686Z,0.80
2022-12-13T10:08:59.060Z,0.80
2022-12-13T10:11:31.711Z,0.70
2022-12-13T10:14:14.514Z,0.80
2022-12-13T10:16:55.512Z,0.70
2022-12-13T10:19:53.319Z,0.70
2022-12-13T10:22:26.510Z,0.70
2022-12-13T10:25:07.040Z,0.80
2022-12-13T10:27:40.098Z,0.70
2022-12-13T10:30:29.341Z,0.80
2022-12-13T10:33:06.995Z,0.80
2022-12-13T10:35:42.546Z,0.80
2022-12-13T10:38:13.747Z,0.80
2022-12-13T10:40:49.971Z,0.60
2022-12-13T10:43:28.197Z,0.70
2022-12-13T10:46:04.191Z,0.90
2022-12-13T10:48:49.222Z,0.60
2022-12-13T10:51:23.883Z,0.80
2022-12-13T10:54:02.653Z,0.70
2022-12-13T10:56:50.386Z,0.80
2022-12-13T10:59:34.623Z,0.80
2022-12-13T11:02:37.046Z,0.90
2022-12-13T11:05:34.310Z,0.60
2022-12-13T11:08:29.243Z,0.60
2022-12-13T11:11:07.398Z,0.70
2022-12-13T11:13:54.697Z,0.90
2022-12-13T11:16:31.628Z,0.70
2022-12-13T11:19:18.292Z,0.80
2022-12-13T11:21:51.962Z,0.80
2022-12-13T11:24:29.006Z,0.70
2022-12-13T11:27:08.394Z,0.80
2022-12-13T11:30:12.739Z,0.80
2022-12-13T11:33:07.100Z,0.70
2022-12-13T11:36:08.446Z,0.80
2022-12-13T11:39:29.862Z,0.70
2022-12-13T11:42:58.355Z,0.80
2022-12-13T11:45:45.311Z,0.80
2022-12-13T11:48:44.583Z,0.70
2022-12-13T11:51:19.670Z,0.70
2022-12-13T11:54:07.570Z,0.70
2022-12-13T11:56:44.364Z,0.70
2022-12-13T11:59:51.415Z,0.70
2022-12-13T12:02:35.858Z,0.80
2022-12-13T12:05:29.759Z,0.60
2022-12-13T12:11:11.767Z,0.70
2022-12-13T12:13:55.453Z,0.80
2022-12-13T12:16:53.495Z,0.70
2022-12-13T12:19:32.637Z,0.90
2022-12-13T12:22:16.191Z,0.60
2022-12-13T12:25:21.522Z,0.80
2022-12-13T12:28:24.053Z,0.90
2022-12-13T12:31:22.488Z,1.10
2022-12-13T12:34:31.011Z,0.80
2022-12-13T12:37:31.743Z,0.90
2022-12-13T12:41:15.590Z,0.80
2022-12-13T12:43:44.943Z,0.70
2022-12-13T12:47:17.729Z,0.50
2022-12-13T12:50:09.943Z,0.60
2022-12-13T12:53:10.231Z,0.80
2022-12-13T12:55:54.780Z,0.70
2022-12-13T12:58:34.934Z,0.90
2022-12-13T13:01:54.932Z,0.80
2022-12-13T13:04:33.101Z,0.80
2022-12-13T13:07:22.455Z,0.70
2022-12-13T13:09:55.750Z,0.80
2022-12-13T13:12:29.335Z,0.70
2022-12-13T13:15:01.608Z,0.70
2022-12-13T13:17:30.704Z,0.60
2022-12-13T13:20:22.045Z,0.70
2022-12-13T13:23:25.208Z,0.80
2022-12-13T13:26:24.302Z,0.90
2022-12-13T13:28:47.259Z,0.70
2022-12-13T13:31:16.967Z,1.00
2022-12-13T13:33:53.357Z,0.60
2022-12-13T13:36:44.348Z,0.80
2022-12-13T13:39:35.292Z,0.70
2022-12-13T13:42:23.292Z,0.70
2022-12-13T13:44:55.480Z,0.90
2022-12-13T13:47:24.211Z,0.80
2022-12-13T13:50:14.555Z,0.90
2022-12-13T13:53:04.396Z,0.80
2022-12-13T13:56:14.478Z,0.90
2022-12-13T13:59:04.674Z,0.70
2022-12-13T14:02:03.640Z,0.70
2022-12-13T14:04:59.652Z,0.80
2022-12-13T14:08:11.331Z,0.70
2022-12-13T14:11:05.340Z,0.60
2022-12-13T14:13:57.890Z,0.70
2022-12-13T14:16:50.842Z,0.70
2022-12-13T14:19:48.770Z,0.70
2022-12-13T14:22:49.364Z,1.00
2022-12-13T14:25:40.368Z,0.70
2022-12-13T14:28:35.294Z,0.90
2022-12-13T14:31:04.270Z,0.70
2022-12-13T14:33:33.477Z,1.00
2022-12-13T14:36:05.238Z,0.80
2022-12-13T14:38:35.795Z,0.80
2022-12-13T14:41:07.156Z,0.90
2022-12-13T14:43:37.044Z,0.70
2022-12-13T14:46:09.314Z,1.00
2022-12-13T14:48:55.225Z,0.90
2022-12-13T14:51:38.828Z,0.90
2022-12-13T14:54:19.987Z,0.80
2022-12-13T14:57:01.643Z,0.80
2022-12-13T14:59:34.497Z,1.30
2022-12-13T15:02:08.087Z,0.80
2022-12-13T15:04:38.769Z,0.90
2022-12-13T15:07:43.348Z,0.80
2022-12-13T15:10:35.167Z,0.70
2022-12-13T15:13:05.370Z,0.80
2022-12-13T15:15:39.169Z,1.00
2022-12-13T15:18:26.566Z,1.00
2022-12-13T15:20:58.911Z,1.00
2022-12-13T15:23:49.035Z,0.80
2022-12-13T15:26:28.947Z,1.00
2022-12-13T15:29:09.480Z,1.10
2022-12-13T15:31:48.919Z,1.00
2022-12-13T15:34:31.002Z,0.90
2022-12-13T15:37:28.254Z,0.90
2022-12-13T15:40:10.059Z,1.00
2022-12-13T15:42:48.363Z,0.90
2022-12-13T15:45:34.819Z,0.80
2022-12-13T15:48:06.957Z,0.90
2022-12-13T15:50:47.164Z,0.90
2022-12-13T15:53:28.028Z,1.00
2022-12-13T15:55:57.624Z,1.10
2022-12-13T15:58:41.671Z,0.80
2022-12-13T16:01:29.242Z,0.80
2022-12-13T16:03:59.344Z,0.80
2022-12-13T16:06:28.958Z,0.90
2022-12-13T16:09:08.867Z,0.90
2022-12-13T16:11:59.919Z,0.90
2022-12-13T16:14:49.461Z,0.70
2022-12-13T16:17:30.759Z,0.80
2022-12-13T16:20:04.656Z,1.10
2022-12-13T16:22:38.340Z,1.00
2022-12-13T16:25:07.803Z,1.00
2022-12-13T16:27:38.456Z,0.90
2022-12-13T16:30:56.035Z,0.80
2022-12-13T16:33:30.939Z,1.00
2022-12-13T16:35:59.935Z,1.00
2022-12-13T16:38:29.642Z,0.90
2022-12-13T16:41:08.797Z,1.00
2022-12-13T16:43:57.078Z,1.00
2022-12-13T16:47:15.259Z,0.80
2022-12-13T16:49:28.801Z,0.80
2022-12-13T16:51:59.242Z,0.80
2022-12-13T16:54:28.699Z,1.00
2022-12-13T16:56:57.635Z,1.10
2022-12-13T16:59:28.675Z,1.10
2022-12-13T17:01:57.623Z,1.00
2022-12-13T17:04:28.279Z,1.00
2022-12-13T17:07:00.672Z,0.80
2022-12-13T17:09:29.711Z,0.90
2022-12-13T17:11:58.540Z,1.00
2022-12-13T17:14:27.367Z,0.90
2022-12-13T17:16:56.387Z,0.80
2022-12-13T17:19:25.502Z,1.00
2022-12-13T17:21:54.523Z,1.00
2022-12-13T17:24:23.538Z,1.00
2022-12-13T17:26:55.363Z,1.10
2022-12-13T17:29:27.051Z,1.20
2022-12-13T17:31:56.022Z,0.90
2022-12-13T17:34:24.762Z,1.00
2022-12-13T17:36:53.604Z,0.90
2022-12-13T17:39:22.698Z,1.20
2022-12-13T17:41:54.932Z,0.90
2022-12-13T17:44:27.289Z,1.00
2022-12-13T17:46:56.976Z,1.00
2022-12-13T17:49:27.028Z,1.10
2022-12-13T17:51:57.052Z,1.20
2022-12-13T17:54:28.860Z,1.00
2022-12-13T17:56:58.350Z,1.10
2022-12-13T17:59:29.059Z,0.90
2022-12-13T18:01:58.192Z,1.00
2022-12-13T18:04:27.199Z,1.20
2022-12-13T18:06:57.590Z,0.90
2022-12-13T18:09:26.800Z,1.30
2022-12-13T18:11:55.968Z,0.80
2022-12-13T18:14:25.042Z,1.10
2022-12-13T18:16:54.243Z,1.20
2022-12-13T18:19:23.348Z,1.10
2022-12-13T18:21:52.488Z,1.10
2022-12-13T18:24:21.618Z,1.10
2022-12-13T18:26:51.551Z,1.00
2022-12-13T18:29:21.303Z,1.00
2022-12-13T18:31:50.726Z,1.30
2022-12-13T18:34:19.955Z,1.00
2022-12-13T18:36:49.074Z,0.90
2022-12-13T18:39:19.316Z,1.10
2022-12-13T18:41:48.653Z,1.10
2022-12-13T18:44:17.737Z,1.10
2022-12-13T18:46:48.091Z,1.00
2022-12-13T18:49:17.405Z,1.00
2022-12-13T18:51:46.356Z,1.10
2022-12-13T18:54:15.366Z,1.00
2022-12-13T18:56:44.523Z,1.30
2022-12-13T18:59:13.870Z,1.10
2022-12-13T19:01:43.164Z,1.00
2022-12-13T19:04:12.344Z,1.10
2022-12-13T19:06:43.883Z,1.20
2022-12-13T19:09:13.033Z,1.00
2022-12-13T19:11:42.252Z,0.90
2022-12-13T19:14:11.797Z,1.10
2022-12-13T19:16:41.201Z,1.10
2022-12-13T19:19:10.633Z,1.00
2022-12-13T19:21:39.720Z,1.00
2022-12-13T19:24:13.845Z,0.90
2022-12-13T19:26:43.270Z,1.10
2022-12-13T19:29:12.307Z,1.10
2022-12-13T19:31:41.671Z,1.20
2022-12-13T19:34:10.995Z,1.10
2022-12-13T19:36:40.292Z,1.00
2022-12-13T19:39:09.374Z,1.30
2022-12-13T19:41:39.017Z,1.20
2022-12-13T19:44:08.328Z,1.30
2022-12-13T19:46:37.590Z,1.00
2022-12-13T19:49:06.736Z,1.10
2022-12-13T19:51:39.601Z,1.10
2022-12-13T19:54:09.328Z,1.30
2022-12-13T19:56:38.706Z,1.20
2022-12-13T19:59:07.712Z,1.20
2022-12-13T20:01:36.748Z,1.40
2022-12-13T20:04:06.395Z,1.00
2022-12-13T20:06:35.426Z,1.30
2022-12-13T20:09:05.200Z,1.30
2022-12-13T20:11:34.406Z,1.30
2022-12-13T20:14:06.708Z,0.90
2022-12-13T20:16:36.040Z,1.00
2022-12-13T20:19:05.619Z,1.20
2022-12-13T20:21:35.003Z,1.50
2022-12-13T20:24:04.197Z,1.10
2022-12-13T20:26:34.418Z,1.30
2022-12-13T20:29:03.689Z,1.50
2022-12-13T20:31:37.300Z,1.10
2022-12-13T20:34:11.181Z,1.00
2022-12-13T20:36:40.292Z,1.20
2022-12-13T20:39:10.461Z,1.20
2022-12-13T20:41:39.880Z,1.20
2022-12-13T20:44:12.080Z,1.30
2022-12-13T20:46:42.235Z,1.10
2022-12-13T20:49:12.111Z,1.10
2022-12-13T20:51:43.359Z,0.90
2022-12-13T20:54:12.616Z,1.20
2022-12-13T20:56:44.385Z,1.10
2022-12-13T20:59:15.838Z,1.20
2022-12-13T21:01:49.034Z,1.10
2022-12-13T21:04:19.542Z,1.10
2022-12-13T21:06:48.500Z,1.20
2022-12-13T21:09:17.750Z,1.30
2022-12-13T21:11:50.075Z,1.20
2022-12-13T21:14:26.525Z,0.90
2022-12-13T21:17:02.332Z,0.90
2022-12-13T21:19:40.217Z,1.00
2022-12-13T21:22:10.240Z,1.30
2022-12-13T21:24:39.382Z,1.50
2022-12-13T21:27:11.429Z,1.30
2022-12-13T21:29:41.028Z,1.00
2022-12-13T21:32:10.326Z,1.20
2022-12-13T21:34:39.655Z,1.30
2022-12-13T21:37:08.988Z,1.30
2022-12-13T21:39:37.897Z,1.20
2022-12-13T21:42:07.289Z,1.10
2022-12-13T21:44:36.441Z,1.20
2022-12-13T21:47:13.394Z,1.00
2022-12-13T21:49:48.413Z,1.20
2022-12-13T21:52:18.615Z,1.20
2022-12-13T21:54:47.700Z,1.20
2022-12-13T21:57:34.901Z,1.10
2022-12-13T22:00:03.888Z,1.30
2022-12-13T22:02:32.952Z,1.40
2022-12-13T22:05:01.974Z,1.10
2022-12-13T22:07:33.795Z,1.20
2022-12-13T22:10:05.323Z,0.70
2022-12-13T22:12:43.098Z,1.10
2022-12-13T22:15:16.323Z,0.90
2022-12-13T22:17:45.598Z,1.30
2022-12-13T22:20:16.895Z,1.00
2022-12-13T22:22:49.524Z,1.10
2022-12-13T22:25:19.805Z,1.00
2022-12-13T22:27:48.887Z,1.30
2022-12-13T22:30:18.522Z,1.30
2022-12-13T22:32:47.638Z,1.00
2022-12-13T22:35:16.854Z,1.00
2022-12-13T22:37:46.009Z,1.20
2022-12-13T22:40:18.441Z,1.00
2022-12-13T22:42:48.473Z,1.20
2022-12-13T22:45:17.718Z,0.90
2022-12-13T22:47:46.880Z,1.00
2022-12-13T22:50:17.909Z,1.00
2022-12-13T22:52:47.070Z,1.10
2022-12-13T22:55:16.210Z,1.00
2022-12-13T22:57:48.701Z,0.90
2022-12-13T23:00:18.065Z,0.90
2022-12-13T23:02:47.158Z,0.80
2022-12-13T23:05:16.302Z,1.20
2022-12-13T23:07:48.542Z,1.10
2022-12-13T23:10:36.465Z,1.10
2022-12-13T23:13:05.692Z,1.20
2022-12-13T23:15:41.409Z,1.10
2022-12-13T23:18:13.434Z,1.20
2022-12-13T23:20:42.495Z,1.40
2022-12-13T23:23:13.894Z,1.00
2022-12-13T23:25:43.219Z,0.70
2022-12-13T23:28:18.256Z,1.00
2022-12-13T23:30:47.284Z,1.20
2022-12-13T23:33:16.375Z,1.10
2022-12-13T23:35:45.467Z,1.00
2022-12-13T23:38:14.513Z,1.10
2022-12-13T23:40:43.963Z,1.00
2022-12-13T23:43:13.178Z,1.20
2022-12-13T23:45:45.311Z,1.70
2022-12-13T23:48:15.080Z,1.30
2022-12-13T23:50:44.197Z,0.90
2022-12-13T23:53:13.565Z,1.40
2022-12-13T23:55:42.625Z,1.40
2022-12-13T23:58:20.691Z,1.00
